Time;durP1;ratioP1;P1;durP2;ratioP2;P2;SDS_P1;SDS_P2;PMS_P1;PMS_P2;Temp;Humidity;BMP_temperature;BMP_pressure;BME280_temperature;BME280_humidity;BME280_pressure;Samples;Min_cycle;Max_cycle;Signal;HPM_P1;HPM_P2
2023/12/09 00:00:39;;;;;;;70.00;30.90;;;;;;;;;;5097419;28;20051;-77
2023/12/09 00:03:07;;;;;;;65.47;29.25;;;;;;;;;;5080175;28;20124;-77
2023/12/09 00:05:33;;;;;;;75.47;29.58;;;;;;;;;;5115668;28;20126;-77
2023/12/09 00:07:59;;;;;;;59.88;28.00;;;;;;;;;;5097426;28;20046;-77
2023/12/09 00:10:25;;;;;;;72.95;29.95;;;;;;;;;;5080567;28;20385;-77
2023/12/09 00:12:51;;;;;;;67.50;29.60;;;;;;;;;;5097256;28;20048;-77
2023/12/09 00:15:17;;;;;;;70.05;29.88;;;;;;;;;;5080488;28;20040;-77
2023/12/09 00:17:44;;;;;;;65.50;31.40;;;;;;;;;;5097277;28;20047;-77
2023/12/09 00:20:10;;;;;;;58.20;26.33;;;;;;;;;;5097288;28;20043;-77
2023/12/09 00:22:36;;;;;;;59.53;26.98;;;;;;;;;;5080570;28;20055;-77
2023/12/09 00:25:03;;;;;;;64.05;27.20;;;;;;;;;;5080389;28;20130;-76
2023/12/09 00:27:29;;;;;;;60.28;26.75;;;;;;;;;;5097095;28;20052;-77
2023/12/09 00:29:55;;;;;;;56.38;26.58;;;;;;;;;;5114680;28;20048;-77
2023/12/09 00:32:21;;;;;;;58.78;26.80;;;;;;;;;;5096907;28;20104;-77
2023/12/09 00:34:48;;;;;;;56.22;25.83;;;;;;;;;;5080197;28;20070;-77
2023/12/09 00:37:14;;;;;;;49.03;26.15;;;;;;;;;;5097077;28;20051;-77
2023/12/09 00:39:40;;;;;;;46.67;22.45;;;;;;;;;;5097302;28;20040;-77
2023/12/09 00:42:06;;;;;;;47.83;24.73;;;;;;;;;;5079577;28;20048;-77
2023/12/09 00:44:32;;;;;;;51.33;25.63;;;;;;;;;;5096761;28;20054;-76
2023/12/09 00:46:58;;;;;;;60.30;25.00;;;;;;;;;;5096825;28;20043;-77
2023/12/09 00:49:24;;;;;;;56.65;23.98;;;;;;;;;;5079843;28;20087;-78
2023/12/09 00:51:50;;;;;;;51.22;23.27;;;;;;;;;;5096431;28;20044;-77
2023/12/09 00:54:16;;;;;;;50.30;22.55;;;;;;;;;;5096718;28;20052;-77
2023/12/09 00:56:42;;;;;;;58.40;24.05;;;;;;;;;;5096814;28;20047;-77
2023/12/09 00:59:08;;;;;;;48.47;23.58;;;;;;;;;;5096704;28;20130;-77
2023/12/09 01:01:34;;;;;;;59.88;22.92;;;;;;;;;;5096601;28;20043;-77
2023/12/09 01:04:01;;;;;;;55.20;24.17;;;;;;;;;;5096523;28;20047;-78
2023/12/09 01:06:28;;;;;;;57.75;23.65;;;;;;;;;;5096505;28;20074;-77
2023/12/09 01:08:54;;;;;;;49.17;23.48;;;;;;;;;;5096450;28;20080;-77
2023/12/09 01:11:20;;;;;;;50.70;22.80;;;;;;;;;;5079583;28;20047;-77
2023/12/09 01:13:46;;;;;;;59.17;23.15;;;;;;;;;;5096120;28;20498;-77
2023/12/09 01:16:12;;;;;;;58.03;24.33;;;;;;;;;;5095457;28;20435;-78
2023/12/09 01:18:38;;;;;;;52.38;22.48;;;;;;;;;;5096382;28;20438;-77
2023/12/09 01:21:04;;;;;;;55.95;21.52;;;;;;;;;;5079372;28;20376;-77
2023/12/09 01:23:30;;;;;;;54.08;21.70;;;;;;;;;;5096060;28;20459;-78
2023/12/09 01:25:56;;;;;;;45.92;20.80;;;;;;;;;;5095949;28;20071;-77
2023/12/09 01:28:22;;;;;;;50.17;22.48;;;;;;;;;;5095801;28;20483;-78
2023/12/09 01:30:48;;;;;;;53.10;21.83;;;;;;;;;;5096170;28;20505;-77
2023/12/09 01:33:14;;;;;;;58.20;23.25;;;;;;;;;;5096385;28;20067;-78
2023/12/09 01:35:41;;;;;;;48.70;22.55;;;;;;;;;;5080187;28;20100;-77
2023/12/09 01:38:07;;;;;;;54.97;21.33;;;;;;;;;;5096133;28;20432;-77
2023/12/09 01:40:33;;;;;;;58.28;20.90;;;;;;;;;;5079290;28;20503;-77
2023/12/09 01:42:59;;;;;;;60.20;23.77;;;;;;;;;;5062356;28;20479;-78
2023/12/09 01:45:25;;;;;;;47.85;18.88;;;;;;;;;;5095898;28;20048;-77
2023/12/09 01:47:51;;;;;;;53.80;21.33;;;;;;;;;;5079206;28;20044;-77
2023/12/09 01:50:18;;;;;;;54.13;20.08;;;;;;;;;;5079477;28;20074;-78
2023/12/09 01:52:44;;;;;;;50.42;20.75;;;;;;;;;;5096384;28;20046;-77
2023/12/09 01:55:11;;;;;;;51.33;20.05;;;;;;;;;;5095967;28;20192;-78
2023/12/09 01:57:37;;;;;;;44.95;20.80;;;;;;;;;;5096033;28;20039;-77
2023/12/09 02:00:04;;;;;;;45.38;19.75;;;;;;;;;;5095492;28;20059;-77
2023/12/09 02:02:30;;;;;;;39.97;19.92;;;;;;;;;;5095939;28;20391;-77
2023/12/09 02:04:56;;;;;;;53.67;19.42;;;;;;;;;;5095790;28;20050;-77
2023/12/09 02:07:22;;;;;;;51.35;21.77;;;;;;;;;;5095526;28;20086;-77
2023/12/09 02:09:49;;;;;;;48.38;20.58;;;;;;;;;;5095541;28;20051;-77
2023/12/09 02:12:27;;;;;;;51.20;20.05;;;;;;;;;;5062417;28;20040;-77
2023/12/09 02:15:03;;;;;;;52.38;20.25;;;;;;;;;;5096025;28;20060;-77
2023/12/09 02:17:37;;;;;;;46.53;19.48;;;;;;;;;;5095782;28;20085;-77
2023/12/09 02:20:03;;;;;;;44.63;20.08;;;;;;;;;;5096063;28;20172;-78
2023/12/09 02:22:29;;;;;;;49.22;19.20;;;;;;;;;;5113727;28;20096;-78
2023/12/09 02:24:56;;;;;;;45.53;20.05;;;;;;;;;;5095520;28;20086;-77
2023/12/09 02:27:32;;;;;;;49.85;20.17;;;;;;;;;;5081158;28;20101;-77
2023/12/09 02:30:09;;;;;;;51.75;19.88;;;;;;;;;;5099103;28;20039;-77
2023/12/09 02:32:35;;;;;;;43.70;17.58;;;;;;;;;;5099593;28;20051;-77
2023/12/09 02:35:05;;;;;;;54.65;20.42;;;;;;;;;;5099322;28;20051;-77
2023/12/09 02:37:32;;;;;;;44.42;18.23;;;;;;;;;;5099372;28;20043;-77
2023/12/09 02:39:58;;;;;;;43.28;19.08;;;;;;;;;;5099183;28;20495;-77
2023/12/09 02:42:26;;;;;;;53.70;21.25;;;;;;;;;;5098814;28;20056;-77
2023/12/09 02:44:52;;;;;;;37.17;17.80;;;;;;;;;;5099227;28;20498;-77
2023/12/09 02:47:18;;;;;;;44.75;18.90;;;;;;;;;;5098759;28;20044;-77
2023/12/09 02:49:44;;;;;;;48.40;19.00;;;;;;;;;;5099051;28;20054;-77
2023/12/09 02:52:11;;;;;;;46.92;17.15;;;;;;;;;;5098856;28;20058;-77
2023/12/09 02:54:37;;;;;;;50.50;18.80;;;;;;;;;;5098969;28;20398;-78
2023/12/09 02:57:03;;;;;;;44.97;18.30;;;;;;;;;;5098953;28;20051;-78
2023/12/09 02:59:30;;;;;;;46.33;18.88;;;;;;;;;;5116793;28;20052;-78
2023/12/09 03:01:57;;;;;;;50.45;18.55;;;;;;;;;;5098764;28;20047;-78
2023/12/09 03:04:23;;;;;;;45.40;18.05;;;;;;;;;;5098683;28;20046;-77
2023/12/09 03:06:49;;;;;;;43.92;17.55;;;;;;;;;;5098718;28;20051;-77
2023/12/09 03:09:15;;;;;;;40.75;18.50;;;;;;;;;;5098693;28;20491;-78
2023/12/09 03:11:41;;;;;;;51.97;17.98;;;;;;;;;;5098618;28;20067;-78
2023/12/09 03:14:07;;;;;;;44.80;17.20;;;;;;;;;;5098585;28;20050;-78
2023/12/09 03:16:37;;;;;;;42.63;16.55;;;;;;;;;;5098581;28;20044;-78
2023/12/09 03:19:03;;;;;;;50.50;18.58;;;;;;;;;;5082159;28;20468;-78
2023/12/09 03:21:29;;;;;;;41.92;16.27;;;;;;;;;;5098423;28;20047;-77
2023/12/09 03:23:55;;;;;;;47.35;17.98;;;;;;;;;;5081803;28;20083;-77
2023/12/09 03:26:21;;;;;;;51.38;18.30;;;;;;;;;;5098865;28;20047;-77
2023/12/09 03:28:47;;;;;;;37.95;15.98;;;;;;;;;;5082204;28;20130;-78
2023/12/09 03:31:13;;;;;;;47.50;16.75;;;;;;;;;;5098251;28;20582;-78
2023/12/09 03:33:40;;;;;;;35.58;15.38;;;;;;;;;;5098444;28;20089;-78
2023/12/09 03:36:07;;;;;;;44.13;15.82;;;;;;;;;;5098136;28;20161;-77
2023/12/09 03:38:33;;;;;;;42.95;15.10;;;;;;;;;;5115632;28;20054;-78
2023/12/09 03:40:59;;;;;;;44.50;14.48;;;;;;;;;;5116053;28;20050;-78
2023/12/09 03:43:25;;;;;;;46.08;16.52;;;;;;;;;;5094016;28;20052;-78
2023/12/09 03:45:51;;;;;;;41.22;15.40;;;;;;;;;;5094375;28;20083;-78
2023/12/09 03:48:17;;;;;;;39.92;14.88;;;;;;;;;;5094448;28;20055;-78
2023/12/09 03:50:43;;;;;;;41.10;13.40;;;;;;;;;;5094418;28;20465;-77
2023/12/09 03:53:09;;;;;;;38.78;15.40;;;;;;;;;;5077680;28;20055;-78
2023/12/09 03:55:35;;;;;;;42.50;15.25;;;;;;;;;;5077489;28;20052;-78
2023/12/09 03:58:01;;;;;;;43.30;16.08;;;;;;;;;;5094572;28;20139;-78
2023/12/09 04:00:29;;;;;;;37.45;13.98;;;;;;;;;;5095050;28;20040;-78
2023/12/09 04:02:55;;;;;;;41.25;15.07;;;;;;;;;;5094543;28;20056;-78
2023/12/09 04:05:21;;;;;;;42.35;16.17;;;;;;;;;;5094002;28;20081;-78
2023/12/09 04:07:47;;;;;;;42.00;15.95;;;;;;;;;;5094394;28;20047;-78
2023/12/09 04:10:13;;;;;;;34.72;15.48;;;;;;;;;;5094404;28;20048;-78
2023/12/09 04:12:40;;;;;;;42.78;16.65;;;;;;;;;;5094044;28;20051;-78
2023/12/09 04:15:07;;;;;;;41.08;15.60;;;;;;;;;;5077373;28;20365;-78
2023/12/09 04:17:33;;;;;;;38.08;15.77;;;;;;;;;;5077079;28;20044;-78
2023/12/09 04:19:59;;;;;;;46.58;16.55;;;;;;;;;;5093898;28;20048;-78
2023/12/09 04:22:25;;;;;;;44.38;15.90;;;;;;;;;;5094672;28;20105;-77
2023/12/09 04:24:51;;;;;;;32.40;10.95;;;;;;;;;;5094743;28;20044;-77
2023/12/09 04:27:17;;;;;;;39.15;15.15;;;;;;;;;;5076990;28;20491;-78
2023/12/09 04:29:43;;;;;;;43.88;16.92;;;;;;;;;;5094593;28;20044;-78
2023/12/09 04:32:09;;;;;;;42.83;15.82;;;;;;;;;;5093650;28;20086;-78
2023/12/09 04:34:37;;;;;;;33.70;13.88;;;;;;;;;;5094597;28;20127;-78
2023/12/09 04:37:03;;;;;;;38.33;14.98;;;;;;;;;;5093607;28;20055;-78
2023/12/09 04:39:30;;;;;;;38.38;15.23;;;;;;;;;;5076795;28;20141;-78
2023/12/09 04:41:56;;;;;;;45.45;15.77;;;;;;;;;;5097992;28;20051;-78
2023/12/09 04:44:25;;;;;;;37.83;14.98;;;;;;;;;;5096792;28;20172;-78
2023/12/09 04:46:51;;;;;;;39.90;14.55;;;;;;;;;;5097606;28;20070;-78
2023/12/09 04:49:17;;;;;;;37.40;15.13;;;;;;;;;;5097427;28;20126;-78
2023/12/09 04:51:43;;;;;;;32.58;14.85;;;;;;;;;;5097038;28;20040;-78
2023/12/09 04:54:10;;;;;;;40.03;15.13;;;;;;;;;;5096736;28;20039;-78
2023/12/09 04:56:36;;;;;;;44.75;15.30;;;;;;;;;;5096665;28;20391;-78
2023/12/09 04:59:02;;;;;;;39.65;15.18;;;;;;;;;;5096621;28;20486;-78
2023/12/09 05:01:28;;;;;;;37.08;14.52;;;;;;;;;;5096542;28;20503;-78
2023/12/09 05:03:54;;;;;;;39.97;14.55;;;;;;;;;;5096585;28;20070;-78
2023/12/09 05:06:21;;;;;;;39.58;16.52;;;;;;;;;;5079358;28;20061;-78
2023/12/09 05:08:47;;;;;;;34.85;14.43;;;;;;;;;;5079653;28;20108;-78
2023/12/09 05:11:13;;;;;;;35.35;14.50;;;;;;;;;;5096513;28;20117;-78
2023/12/09 05:13:39;;;;;;;40.85;15.05;;;;;;;;;;5097252;28;20387;-78
2023/12/09 05:16:05;;;;;;;42.08;15.23;;;;;;;;;;5097201;28;20050;-78
2023/12/09 05:18:33;;;;;;;34.08;14.38;;;;;;;;;;5096367;28;20054;-78
2023/12/09 05:21:00;;;;;;;47.78;16.23;;;;;;;;;;5097118;28;20100;-78
2023/12/09 05:23:26;;;;;;;45.58;15.68;;;;;;;;;;5096294;28;20086;-78
2023/12/09 05:25:52;;;;;;;31.50;13.68;;;;;;;;;;5096116;28;20044;-78
2023/12/09 05:28:18;;;;;;;31.25;12.30;;;;;;;;;;5097117;28;20047;-78
2023/12/09 05:30:44;;;;;;;43.15;15.25;;;;;;;;;;5096950;28;20349;-78
2023/12/09 05:33:10;;;;;;;40.03;14.80;;;;;;;;;;5096530;28;20048;-78
2023/12/09 05:35:36;;;;;;;45.65;16.02;;;;;;;;;;5080161;28;20138;-78
2023/12/09 05:38:02;;;;;;;45.45;15.02;;;;;;;;;;5095910;28;20472;-78
2023/12/09 05:40:28;;;;;;;45.17;15.27;;;;;;;;;;5079349;28;20039;-78
2023/12/09 05:42:55;;;;;;;40.10;14.65;;;;;;;;;;5096535;28;20441;-78
2023/12/09 05:45:21;;;;;;;42.45;14.52;;;;;;;;;;5095915;28;20047;-78
2023/12/09 05:47:47;;;;;;;36.75;13.35;;;;;;;;;;5096079;28;20044;-78
2023/12/09 05:50:13;;;;;;;32.78;12.98;;;;;;;;;;5096316;28;20052;-78
2023/12/09 05:52:41;;;;;;;36.15;13.05;;;;;;;;;;5096856;28;20094;-78
2023/12/09 05:55:07;;;;;;;40.65;13.95;;;;;;;;;;5095746;28;20046;-78
2023/12/09 05:57:33;;;;;;;30.48;13.07;;;;;;;;;;5096025;28;20046;-77
2023/12/09 05:59:59;;;;;;;36.92;13.15;;;;;;;;;;5095580;28;20051;-78
2023/12/09 06:02:25;;;;;;;37.20;12.70;;;;;;;;;;5116524;28;20043;-78
2023/12/09 06:04:51;;;;;;;33.28;11.68;;;;;;;;;;5099888;28;20390;-78
2023/12/09 06:07:17;;;;;;;30.40;10.45;;;;;;;;;;5100716;28;20075;-78
2023/12/09 06:09:44;;;;;;;35.08;12.30;;;;;;;;;;5100708;28;20048;-78
2023/12/09 06:12:10;;;;;;;29.02;11.50;;;;;;;;;;5099784;28;20055;-78
2023/12/09 06:14:36;;;;;;;30.75;11.63;;;;;;;;;;5099423;28;20079;-78
2023/12/09 06:17:02;;;;;;;34.38;12.73;;;;;;;;;;5099992;28;20100;-78
2023/12/09 06:19:28;;;;;;;34.60;12.13;;;;;;;;;;5099704;28;20047;-78
2023/12/09 06:21:55;;;;;;;31.98;11.57;;;;;;;;;;5099652;28;20449;-78
2023/12/09 06:24:21;;;;;;;32.38;11.90;;;;;;;;;;5099150;28;20047;-78
2023/12/09 06:26:47;;;;;;;26.77;9.40;;;;;;;;;;5082590;28;20578;-78
2023/12/09 06:29:14;;;;;;;29.08;9.93;;;;;;;;;;5099397;28;20116;-78
2023/12/09 06:31:40;;;;;;;38.33;10.68;;;;;;;;;;5099385;28;20039;-78
2023/12/09 06:34:06;;;;;;;33.25;11.70;;;;;;;;;;5083397;28;20046;-78
2023/12/09 06:36:32;;;;;;;22.63;8.43;;;;;;;;;;5099027;28;20047;-78
2023/12/09 06:38:58;;;;;;;26.75;9.90;;;;;;;;;;5099321;28;20048;-78
2023/12/09 06:41:24;;;;;;;30.48;9.95;;;;;;;;;;5117249;28;20154;-77
2023/12/09 06:43:51;;;;;;;33.03;10.68;;;;;;;;;;5082149;28;20051;-78
2023/12/09 06:46:17;;;;;;;30.65;10.30;;;;;;;;;;5098600;28;20043;-78
2023/12/09 06:48:43;;;;;;;26.08;8.65;;;;;;;;;;5116843;28;20546;-78
2023/12/09 06:51:16;;;;;;;25.95;10.13;;;;;;;;;;5098795;28;20506;-78
2023/12/09 06:53:42;;;;;;;21.55;8.43;;;;;;;;;;5098951;28;20483;-78
2023/12/09 06:56:09;;;;;;;34.78;8.52;;;;;;;;;;5116926;28;20103;-78
2023/12/09 06:58:36;;;;;;;26.13;9.02;;;;;;;;;;5098873;28;20046;-78
2023/12/09 07:01:02;;;;;;;22.92;8.40;;;;;;;;;;5081561;28;20077;-77
2023/12/09 07:03:28;;;;;;;28.15;8.38;;;;;;;;;;5099087;28;20100;-78
2023/12/09 07:05:54;;;;;;;20.75;7.10;;;;;;;;;;5117187;28;20044;-78
2023/12/09 07:08:20;;;;;;;22.13;7.18;;;;;;;;;;5098749;28;20051;-78
2023/12/09 07:10:46;;;;;;;29.85;8.25;;;;;;;;;;5082717;28;20058;-78
2023/12/09 07:13:12;;;;;;;24.20;6.70;;;;;;;;;;5098850;28;20040;-78
2023/12/09 07:15:39;;;;;;;26.90;7.35;;;;;;;;;;5098296;28;20051;-78
2023/12/09 07:18:05;;;;;;;27.85;7.55;;;;;;;;;;5098362;28;20466;-78
2023/12/09 07:20:31;;;;;;;20.00;7.32;;;;;;;;;;5099343;28;20372;-78
2023/12/09 07:22:57;;;;;;;24.27;7.72;;;;;;;;;;5099306;28;20350;-78
2023/12/09 07:25:23;;;;;;;27.55;7.22;;;;;;;;;;5099096;28;20162;-77
2023/12/09 07:27:50;;;;;;;26.00;8.18;;;;;;;;;;5081320;28;20471;-78
2023/12/09 07:30:16;;;;;;;20.25;7.25;;;;;;;;;;5081392;28;20052;-77
2023/12/09 07:32:43;;;;;;;19.63;6.55;;;;;;;;;;5098275;28;20055;-78
2023/12/09 07:35:09;;;;;;;18.92;6.18;;;;;;;;;;5116221;28;20062;-78
2023/12/09 07:37:35;;;;;;;23.95;6.35;;;;;;;;;;5098421;28;20052;-78
2023/12/09 07:40:04;;;;;;;22.83;5.07;;;;;;;;;;5116039;28;20051;-78
2023/12/09 07:42:30;;;;;;;19.00;5.13;;;;;;;;;;5081537;28;20546;-78
2023/12/09 07:44:56;;;;;;;20.15;5.90;;;;;;;;;;5081072;28;20044;-78
2023/12/09 07:47:22;;;;;;;19.35;5.20;;;;;;;;;;5098265;28;20043;-78
2023/12/09 07:49:48;;;;;;;18.17;4.93;;;;;;;;;;5115920;28;20070;-78
2023/12/09 07:52:15;;;;;;;30.52;5.95;;;;;;;;;;5081030;28;20369;-78
2023/12/09 07:54:41;;;;;;;19.15;4.93;;;;;;;;;;5080881;28;20508;-78
2023/12/09 07:57:07;;;;;;;21.88;4.65;;;;;;;;;;5097774;28;20487;-78
2023/12/09 07:59:33;;;;;;;21.13;4.57;;;;;;;;;;5081689;28;20142;-78
2023/12/09 08:01:59;;;;;;;18.73;5.18;;;;;;;;;;5115624;28;20059;-78
2023/12/09 08:04:25;;;;;;;20.77;4.75;;;;;;;;;;5115527;28;20044;-78
2023/12/09 08:06:52;;;;;;;16.10;3.40;;;;;;;;;;5097575;28;20051;-78
2023/12/09 08:09:18;;;;;;;12.43;3.40;;;;;;;;;;5098387;28;20375;-78
2023/12/09 08:11:44;;;;;;;15.35;4.63;;;;;;;;;;5097468;28;20051;-78
2023/12/09 08:14:10;;;;;;;17.63;3.92;;;;;;;;;;5080831;28;20376;-78
2023/12/09 08:16:36;;;;;;;22.13;3.92;;;;;;;;;;5098277;28;20051;-78
2023/12/09 08:19:02;;;;;;;20.85;3.90;;;;;;;;;;5098224;28;20058;-78
2023/12/09 08:21:28;;;;;;;16.50;3.83;;;;;;;;;;5097299;28;20058;-78
2023/12/09 08:23:54;;;;;;;15.35;3.40;;;;;;;;;;5096779;28;20054;-77
2023/12/09 08:26:20;;;;;;;14.68;3.38;;;;;;;;;;5097235;28;20134;-78
2023/12/09 08:28:46;;;;;;;14.93;4.15;;;;;;;;;;5097172;28;20472;-78
2023/12/09 08:31:13;;;;;;;19.00;3.80;;;;;;;;;;5097897;28;20050;-78
2023/12/09 08:33:40;;;;;;;15.25;3.00;;;;;;;;;;5097845;28;20176;-78
2023/12/09 08:36:07;;;;;;;18.20;3.25;;;;;;;;;;5097880;28;20067;-78
2023/12/09 08:38:33;;;;;;;9.18;2.03;;;;;;;;;;5097267;28;20156;-78
2023/12/09 08:40:59;;;;;;;16.45;3.50;;;;;;;;;;5096937;28;20047;-78
2023/12/09 08:43:25;;;;;;;15.63;2.83;;;;;;;;;;5093307;28;20063;-78
2023/12/09 08:45:51;;;;;;;15.50;2.75;;;;;;;;;;5093238;28;20047;-77
2023/12/09 08:48:18;;;;;;;10.88;2.33;;;;;;;;;;5076933;28;20529;-77
2023/12/09 08:50:44;;;;;;;17.48;2.42;;;;;;;;;;5093780;28;20050;-77
2023/12/09 08:53:10;;;;;;;15.25;3.30;;;;;;;;;;5093399;28;20389;-77
2023/12/09 08:55:36;;;;;;;14.45;2.75;;;;;;;;;;5093354;28;20081;-78
2023/12/09 08:58:03;;;;;;;15.48;3.42;;;;;;;;;;5076557;28;20047;-78
2023/12/09 09:00:30;;;;;;;17.45;2.95;;;;;;;;;;5076349;28;20048;-77
2023/12/09 09:02:56;;;;;;;15.63;3.47;;;;;;;;;;5092950;28;20048;-78
2023/12/09 09:05:23;;;;;;;15.07;2.42;;;;;;;;;;5076289;28;20040;-78
2023/12/09 09:07:49;;;;;;;17.23;2.42;;;;;;;;;;5093163;28;20097;-78
2023/12/09 09:10:15;;;;;;;14.77;3.10;;;;;;;;;;5093151;28;20048;-77
2023/12/09 09:12:43;;;;;;;8.05;2.15;;;;;;;;;;5094027;28;20048;-77
2023/12/09 09:15:09;;;;;;;13.23;2.92;;;;;;;;;;5093846;28;20117;-78
2023/12/09 09:17:35;;;;;;;11.27;2.10;;;;;;;;;;5093077;28;20043;-77
2023/12/09 09:20:02;;;;;;;14.20;2.25;;;;;;;;;;5093008;28;20134;-77
2023/12/09 09:22:29;;;;;;;14.52;1.80;;;;;;;;;;5094466;28;20083;-77
2023/12/09 09:24:55;;;;;;;11.13;2.13;;;;;;;;;;5092504;28;20077;-77
2023/12/09 09:27:21;;;;;;;15.05;1.80;;;;;;;;;;5092671;28;20127;-77
2023/12/09 09:29:47;;;;;;;9.05;2.10;;;;;;;;;;5092745;28;20472;-77
2023/12/09 09:32:13;;;;;;;16.40;2.60;;;;;;;;;;5092823;28;20535;-77
2023/12/09 09:34:41;;;;;;;14.75;2.30;;;;;;;;;;5093744;28;20511;-77
2023/12/09 09:37:08;;;;;;;10.80;2.47;;;;;;;;;;5096097;28;20050;-77
2023/12/09 09:39:34;;;;;;;12.95;2.25;;;;;;;;;;5080175;28;20059;-77
2023/12/09 09:42:06;;;;;;;8.20;2.13;;;;;;;;;;5096744;28;20055;-77
2023/12/09 09:44:36;;;;;;;13.75;2.13;;;;;;;;;;5096850;28;20078;-77
2023/12/09 09:47:02;;;;;;;12.90;2.90;;;;;;;;;;5096868;28;20048;-77
2023/12/09 09:49:31;;;;;;;13.85;2.20;;;;;;;;;;5096820;28;20075;-77
2023/12/09 09:51:58;;;;;;;11.32;2.17;;;;;;;;;;5097658;28;20048;-77
2023/12/09 09:54:27;;;;;;;10.00;2.53;;;;;;;;;;5098019;28;20052;-77
2023/12/09 09:56:54;;;;;;;11.35;2.60;;;;;;;;;;5079855;28;20419;-77
2023/12/09 09:59:20;;;;;;;22.55;3.05;;;;;;;;;;5079837;28;20507;-77
2023/12/09 10:01:46;;;;;;;12.20;2.13;;;;;;;;;;5096610;28;20109;-77
2023/12/09 10:04:12;;;;;;;13.13;2.30;;;;;;;;;;5079758;28;20051;-77
2023/12/09 10:06:39;;;;;;;10.48;2.22;;;;;;;;;;5096186;28;20516;-78
2023/12/09 10:09:05;;;;;;;13.38;2.47;;;;;;;;;;5079643;28;20476;-78
2023/12/09 10:11:32;;;;;;;9.65;1.63;;;;;;;;;;5096714;28;20059;-78
2023/12/09 10:13:58;;;;;;;11.45;2.28;;;;;;;;;;5079265;28;20507;-78
2023/12/09 10:16:24;;;;;;;11.07;2.33;;;;;;;;;;5097354;28;20126;-78
2023/12/09 10:18:50;;;;;;;10.60;2.28;;;;;;;;;;5096322;28;20467;-78
2023/12/09 10:21:16;;;;;;;12.48;2.25;;;;;;;;;;5096303;28;20066;-78
2023/12/09 10:23:45;;;;;;;8.10;1.92;;;;;;;;;;5096239;28;20475;-78
2023/12/09 10:26:11;;;;;;;11.75;1.70;;;;;;;;;;5095921;28;20047;-78
2023/12/09 10:28:37;;;;;;;10.30;1.33;;;;;;;;;;5096124;28;20048;-77
2023/12/09 10:31:03;;;;;;;13.50;2.42;;;;;;;;;;5096007;28;20136;-78
2023/12/09 10:33:33;;;;;;;11.77;2.38;;;;;;;;;;5096076;28;20130;-78
2023/12/09 10:36:00;;;;;;;8.98;1.90;;;;;;;;;;5095967;28;20514;-76
2023/12/09 10:38:26;;;;;;;12.88;2.40;;;;;;;;;;5079899;28;20047;-76
2023/12/09 10:40:56;;;;;;;7.50;2.10;;;;;;;;;;5095898;28;20392;-78
2023/12/09 10:43:22;;;;;;;7.60;1.92;;;;;;;;;;5095682;28;20130;-78
2023/12/09 10:45:48;;;;;;;12.00;2.55;;;;;;;;;;5095927;28;20123;-78
2023/12/09 10:48:14;;;;;;;10.25;1.77;;;;;;;;;;5095001;28;20050;-78
2023/12/09 10:50:42;;;;;;;9.25;1.98;;;;;;;;;;5095727;28;20538;-77
2023/12/09 10:53:08;;;;;;;10.60;1.58;;;;;;;;;;5095677;28;20039;-78
2023/12/09 10:55:34;;;;;;;8.65;1.65;;;;;;;;;;5096458;28;20105;-78
2023/12/09 10:58:00;;;;;;;9.52;2.10;;;;;;;;;;5079000;28;20082;-78
2023/12/09 11:00:30;;;;;;;8.77;2.08;;;;;;;;;;5095488;28;20051;-78
2023/12/09 11:02:56;;;;;;;5.80;1.50;;;;;;;;;;5095527;28;20092;-78
2023/12/09 11:05:23;;;;;;;7.20;1.48;;;;;;;;;;5095273;28;20491;-78
2023/12/09 11:07:49;;;;;;;7.70;2.13;;;;;;;;;;5096231;28;20097;-78
2023/12/09 11:10:16;;;;;;;5.82;1.60;;;;;;;;;;5078145;28;20059;-78
2023/12/09 11:12:46;;;;;;;8.10;1.90;;;;;;;;;;5095570;28;20044;-78
2023/12/09 11:15:15;;;;;;;10.10;1.38;;;;;;;;;;5095197;28;20564;-78
2023/12/09 11:17:47;;;;;;;8.50;1.67;;;;;;;;;;5096039;28;20109;-78
2023/12/09 11:20:20;;;;;;;6.55;2.08;;;;;;;;;;5096446;28;20087;-78
2023/12/09 11:22:47;;;;;;;14.00;2.08;;;;;;;;;;5095461;28;20127;-78
2023/12/09 11:25:19;;;;;;;6.13;1.70;;;;;;;;;;5094637;28;20096;-78
2023/12/09 11:27:48;;;;;;;10.43;1.58;;;;;;;;;;5095015;28;20048;-78
2023/12/09 11:30:34;;;;;;;7.00;1.17;;;;;;;;;;5095168;28;20051;-78
2023/12/09 11:33:00;;;;;;;;;;;;;;;;;;5095400;28;20092;-77
2023/12/09 11:35:26;;;;;;;9.75;2.13;;;;;;;;;;5078810;28;20353;-78
2023/12/09 11:37:54;;;;;;;6.38;1.15;;;;;;;;;;5094797;28;20093;-78
2023/12/09 11:40:21;;;;;;;6.47;1.20;;;;;;;;;;5094509;28;20063;-78
2023/12/09 11:42:47;;;;;;;9.38;1.58;;;;;;;;;;5078315;28;20052;-78
2023/12/09 11:45:14;;;;;;;9.02;1.23;;;;;;;;;;5095587;28;20410;-78
2023/12/09 11:47:40;;;;;;;4.50;1.10;;;;;;;;;;5078105;28;20131;-78
2023/12/09 11:50:07;;;;;;;8.10;1.30;;;;;;;;;;5077762;28;20055;-78
2023/12/09 11:52:33;;;;;;;10.20;1.45;;;;;;;;;;5094558;28;20051;-78
2023/12/09 11:55:04;;;;;;;14.65;1.85;;;;;;;;;;5094156;28;20052;-78
2023/12/09 11:57:33;;;;;;;6.70;1.45;;;;;;;;;;5094771;28;20086;-78
2023/12/09 11:59:59;;;;;;;10.13;1.08;;;;;;;;;;5093426;28;20040;-78
2023/12/09 12:02:25;;;;;;;8.70;1.40;;;;;;;;;;5094361;28;20391;-78
2023/12/09 12:04:51;;;;;;;7.60;1.30;;;;;;;;;;5077375;28;20044;-78
2023/12/09 12:07:17;;;;;;;6.38;1.60;;;;;;;;;;5094582;28;20048;-78
2023/12/09 12:09:43;;;;;;;4.57;0.90;;;;;;;;;;5094239;28;20495;-78
2023/12/09 12:12:09;;;;;;;14.90;1.77;;;;;;;;;;5094175;28;20113;-78
2023/12/09 12:14:36;;;;;;;7.38;1.20;;;;;;;;;;5078151;28;20055;-78
2023/12/09 12:17:02;;;;;;;9.07;1.52;;;;;;;;;;5094064;28;20052;-78
2023/12/09 12:19:32;;;;;;;7.85;0.88;;;;;;;;;;5094316;28;20136;-78
2023/12/09 12:21:58;;;;;;;7.05;0.95;;;;;;;;;;5093959;28;20036;-78
2023/12/09 12:24:25;;;;;;;6.45;1.38;;;;;;;;;;5093921;28;20558;-78
2023/12/09 12:26:55;;;;;;;10.00;1.40;;;;;;;;;;5094418;28;20048;-78
2023/12/09 12:29:21;;;;;;;9.00;1.20;;;;;;;;;;5093834;28;20127;-78
2023/12/09 12:31:51;;;;;;;7.70;0.82;;;;;;;;;;5094791;28;20106;-78
2023/12/09 12:34:17;;;;;;;9.90;1.52;;;;;;;;;;5095336;28;20126;-78
2023/12/09 12:36:48;;;;;;;8.10;1.38;;;;;;;;;;5076909;28;20083;-78
2023/12/09 12:39:15;;;;;;;6.93;1.15;;;;;;;;;;5094537;28;20052;-78
2023/12/09 12:41:41;;;;;;;7.13;1.45;;;;;;;;;;5094567;28;20081;-78
2023/12/09 12:44:08;;;;;;;6.72;0.90;;;;;;;;;;5097729;28;20266;-78
2023/12/09 12:46:34;;;;;;;5.82;1.08;;;;;;;;;;5079749;28;20051;-78
2023/12/09 12:49:01;;;;;;;7.85;1.52;;;;;;;;;;5097185;28;20380;-78
2023/12/09 12:51:27;;;;;;;7.18;1.38;;;;;;;;;;5096833;28;20441;-78
2023/12/09 12:53:53;;;;;;;7.38;1.27;;;;;;;;;;5114707;28;20100;-78
2023/12/09 12:56:19;;;;;;;6.55;0.88;;;;;;;;;;5097021;28;20100;-77
2023/12/09 12:58:45;;;;;;;6.35;1.20;;;;;;;;;;5080148;28;20040;-78
2023/12/09 13:01:12;;;;;;;6.60;1.08;;;;;;;;;;5079712;28;20055;-77
2023/12/09 13:03:38;;;;;;;9.85;0.95;;;;;;;;;;5096689;28;20051;-77
2023/12/09 13:06:06;;;;;;;8.05;1.33;;;;;;;;;;5096378;28;20408;-78
2023/12/09 13:08:33;;;;;;;6.43;0.70;;;;;;;;;;5080365;28;20043;-78
2023/12/09 13:10:59;;;;;;;9.43;1.60;;;;;;;;;;5080082;28;20088;-77
2023/12/09 13:13:25;;;;;;;8.30;0.90;;;;;;;;;;5096472;28;20126;-77
2023/12/09 13:15:51;;;;;;;6.70;0.80;;;;;;;;;;5096690;28;20044;-77
2023/12/09 13:18:17;;;;;;;10.40;1.33;;;;;;;;;;5096424;28;20391;-77
2023/12/09 13:20:45;;;;;;;7.53;1.52;;;;;;;;;;5096381;28;20039;-77
2023/12/09 13:23:11;;;;;;;9.77;1.38;;;;;;;;;;5096073;28;20487;-78
2023/12/09 13:25:38;;;;;;;6.75;1.70;;;;;;;;;;5096995;28;20054;-77
2023/12/09 13:28:04;;;;;;;6.97;1.77;;;;;;;;;;5096353;28;20039;-77
2023/12/09 13:30:30;;;;;;;5.00;1.40;;;;;;;;;;5096232;28;20155;-78
2023/12/09 13:33:01;;;;;;;6.47;1.85;;;;;;;;;;5096275;28;20047;-77
2023/12/09 13:35:30;;;;;;;9.70;1.42;;;;;;;;;;5096012;28;20080;-78
2023/12/09 13:37:57;;;;;;;9.25;2.10;;;;;;;;;;5080313;28;20356;-78
2023/12/09 13:40:23;;;;;;;9.98;2.22;;;;;;;;;;5096105;28;20047;-78
2023/12/09 13:42:50;;;;;;;11.23;2.13;;;;;;;;;;5078628;28;20056;-78
2023/12/09 13:45:18;;;;;;;11.85;2.03;;;;;;;;;;5095927;28;20048;-79
2023/12/09 13:47:45;;;;;;;7.43;2.20;;;;;;;;;;5079368;28;20052;-79
2023/12/09 13:50:11;;;;;;;10.50;1.88;;;;;;;;;;5096453;28;20539;-78
2023/12/09 13:52:37;;;;;;;14.45;2.88;;;;;;;;;;5079073;28;20047;-79
2023/12/09 13:55:04;;;;;;;13.40;3.42;;;;;;;;;;5095931;28;20480;-79
2023/12/09 13:57:31;;;;;;;9.95;3.75;;;;;;;;;;5095820;28;20051;-79
2023/12/09 13:59:58;;;;;;;7.57;2.03;;;;;;;;;;5095610;28;20058;-81
2023/12/09 14:02:25;;;;;;;9.80;2.15;;;;;;;;;;5095870;28;20047;-79
2023/12/09 14:04:51;;;;;;;6.88;2.33;;;;;;;;;;5095793;28;20097;-79
2023/12/09 14:07:18;;;;;;;12.40;3.10;;;;;;;;;;5096638;28;20078;-79
2023/12/09 14:09:44;;;;;;;10.65;1.67;;;;;;;;;;5095717;28;20081;-79
2023/12/09 14:12:10;;;;;;;11.82;2.10;;;;;;;;;;5095850;28;20043;-79
2023/12/09 14:14:36;;;;;;;10.93;3.25;;;;;;;;;;5095782;28;20054;-79
2023/12/09 14:17:02;;;;;;;14.00;4.40;;;;;;;;;;5079003;28;20055;-82
2023/12/09 14:19:28;;;;;;;8.18;1.95;;;;;;;;;;5095334;28;20044;-79
2023/12/09 14:21:54;;;;;;;8.90;1.75;;;;;;;;;;5095789;28;20475;-79